Terminal Aerodrome Forecast
Issued by NWS Jackson, KY

Home | Current Version | Previous Version | Text Only | Print | Product List | Glossary On
Versions: 1 2 3 4 5 6 7 8 9 10 11 12 13 14 15 16 17
289
FTUS43 KJKL 251245 AAB
TAFJKL
TAF AMD
KJKL 251245Z 2513/2612 20011G20KT P6SM OVC050
      TEMPO 2514/2515 26010G24KT 5SM -SHRA BKN025
     FM251500 26009G17KT P6SM VCSH BKN015
     FM251600 27008KT P6SM BKN040
     FM252300 VRB05KT P6SM SCT200=

USA.gov is the U.S. government's official web portal to all federal, state and local government web resources and services.